sensor_id;sensor_type;location;lat;lon;timestamp;pressure;altitude;pressure_sealevel;temperature;humidity
75428;BME280;64008;55.612;37.698;2022-11-25T00:00:24;100193.53;;;-5.57;89.85
75428;BME280;64008;55.612;37.698;2022-11-25T00:02:49;100200.69;;;-5.56;88.77
75428;BME280;64008;55.612;37.698;2022-11-25T00:05:15;100201.44;;;-5.61;88.82
75428;BME280;64008;55.612;37.698;2022-11-25T00:07:40;100201.09;;;-5.64;88.50
75428;BME280;64008;55.612;37.698;2022-11-25T00:10:06;100196.38;;;-5.69;89.29
75428;BME280;64008;55.612;37.698;2022-11-25T00:12:32;100201.84;;;-5.69;89.57
75428;BME280;64008;55.612;37.698;2022-11-25T00:14:57;100199.34;;;-5.70;88.70
75428;BME280;64008;55.612;37.698;2022-11-25T00:17:23;100205.41;;;-5.68;88.87
75428;BME280;64008;55.612;37.698;2022-11-25T00:19:48;100206.56;;;-5.64;89.07
75428;BME280;64008;55.612;37.698;2022-11-25T00:22:15;100208.72;;;-5.66;88.69
75428;BME280;64008;55.612;37.698;2022-11-25T00:24:41;100209.22;;;-5.69;88.26
75428;BME280;64008;55.612;37.698;2022-11-25T00:27:06;100219.59;;;-5.71;88.67
75428;BME280;64008;55.612;37.698;2022-11-25T00:29:31;100207.91;;;-5.67;89.40
75428;BME280;64008;55.612;37.698;2022-11-25T00:31:57;100214.78;;;-5.64;89.19
75428;BME280;64008;55.612;37.698;2022-11-25T00:34:22;100212.69;;;-5.74;88.26
75428;BME280;64008;55.612;37.698;2022-11-25T00:36:48;100212.59;;;-5.79;87.56
75428;BME280;64008;55.612;37.698;2022-11-25T00:39:15;100209.03;;;-5.80;87.72
75428;BME280;64008;55.612;37.698;2022-11-25T00:41:42;100210.47;;;-5.77;88.76
75428;BME280;64008;55.612;37.698;2022-11-25T00:44:26;100217.59;;;-5.76;87.71
75428;BME280;64008;55.612;37.698;2022-11-25T00:47:06;100212.25;;;-5.83;88.01
75428;BME280;64008;55.612;37.698;2022-11-25T00:49:33;100217.41;;;-5.86;88.07
75428;BME280;64008;55.612;37.698;2022-11-25T00:51:58;100214.94;;;-5.88;88.61
75428;BME280;64008;55.612;37.698;2022-11-25T00:54:24;100221.22;;;-5.87;88.81
75428;BME280;64008;55.612;37.698;2022-11-25T00:56:50;100223.66;;;-5.91;88.47
75428;BME280;64008;55.612;37.698;2022-11-25T00:59:15;100221.56;;;-6.00;88.17
75428;BME280;64008;55.612;37.698;2022-11-25T01:01:41;100226.19;;;-6.01;88.65
75428;BME280;64008;55.612;37.698;2022-11-25T01:04:06;100221.56;;;-6.12;88.59
75428;BME280;64008;55.612;37.698;2022-11-25T01:06:33;100223.97;;;-6.15;88.69
75428;BME280;64008;55.612;37.698;2022-11-25T01:08:59;100225.75;;;-6.21;89.05
75428;BME280;64008;55.612;37.698;2022-11-25T01:11:24;100229.84;;;-6.24;89.03
75428;BME280;64008;55.612;37.698;2022-11-25T01:13:50;100237.78;;;-6.22;89.12
75428;BME280;64008;55.612;37.698;2022-11-25T01:16:19;100231.59;;;-6.18;89.32
75428;BME280;64008;55.612;37.698;2022-11-25T01:18:45;100231.59;;;-6.18;89.56
75428;BME280;64008;55.612;37.698;2022-11-25T01:21:19;100243.47;;;-6.12;90.14
75428;BME280;64008;55.612;37.698;2022-11-25T01:23:45;100246.44;;;-6.13;89.64
75428;BME280;64008;55.612;37.698;2022-11-25T01:26:15;100249.44;;;-6.15;89.86
75428;BME280;64008;55.612;37.698;2022-11-25T01:28:40;100247.88;;;-6.11;89.57
75428;BME280;64008;55.612;37.698;2022-11-25T01:31:08;100252.13;;;-6.03;89.56
75428;BME280;64008;55.612;37.698;2022-11-25T01:33:35;100250.09;;;-5.96;90.12
75428;BME280;64008;55.612;37.698;2022-11-25T01:36:08;100255.56;;;-5.96;89.17
75428;BME280;64008;55.612;37.698;2022-11-25T01:38:35;100258.69;;;-6.04;89.26
75428;BME280;64008;55.612;37.698;2022-11-25T01:41:02;100260.03;;;-6.07;89.14
75428;BME280;64008;55.612;37.698;2022-11-25T01:43:28;100259.66;;;-6.10;89.48
75428;BME280;64008;55.612;37.698;2022-11-25T01:48:40;100253.59;;;-6.12;90.08
75428;BME280;64008;55.612;37.698;2022-11-25T01:51:23;100256.31;;;-6.12;89.66
75428;BME280;64008;55.612;37.698;2022-11-25T01:53:50;100252.28;;;-6.10;89.87
75428;BME280;64008;55.612;37.698;2022-11-25T01:56:17;100254.88;;;-6.03;90.10
75428;BME280;64008;55.612;37.698;2022-11-25T01:58:45;100252.13;;;-6.03;90.66
75428;BME280;64008;55.612;37.698;2022-11-25T02:01:13;100254.97;;;-5.98;90.54
75428;BME280;64008;55.612;37.698;2022-11-25T02:03:42;100246.28;;;-5.95;90.40
75428;BME280;64008;55.612;37.698;2022-11-25T02:06:26;100250.00;;;-6.01;90.39
75428;BME280;64008;55.612;37.698;2022-11-25T02:08:58;100255.69;;;-6.03;90.37
75428;BME280;64008;55.612;37.698;2022-11-25T02:11:27;100261.91;;;-6.07;90.75
75428;BME280;64008;55.612;37.698;2022-11-25T02:13:55;100257.16;;;-6.12;90.26
75428;BME280;64008;55.612;37.698;2022-11-25T02:16:22;100260.63;;;-6.16;90.20
75428;BME280;64008;55.612;37.698;2022-11-25T02:18:48;100265.75;;;-6.20;90.92
75428;BME280;64008;55.612;37.698;2022-11-25T02:21:17;100253.00;;;-6.14;90.92
75428;BME280;64008;55.612;37.698;2022-11-25T02:24:04;100252.03;;;-6.08;91.24
75428;BME280;64008;55.612;37.698;2022-11-25T02:26:33;100252.38;;;-6.05;90.87
75428;BME280;64008;55.612;37.698;2022-11-25T02:28:59;100254.03;;;-6.04;90.82
75428;BME280;64008;55.612;37.698;2022-11-25T02:31:24;100254.88;;;-6.03;90.86
75428;BME280;64008;55.612;37.698;2022-11-25T02:33:50;100250.97;;;-6.07;90.67
75428;BME280;64008;55.612;37.698;2022-11-25T02:36:17;100257.38;;;-6.13;90.48
75428;BME280;64008;55.612;37.698;2022-11-25T02:38:52;100262.63;;;-6.12;90.85
75428;BME280;64008;55.612;37.698;2022-11-25T02:43:50;100266.66;;;-6.14;90.86
75428;BME280;64008;55.612;37.698;2022-11-25T02:46:18;100266.56;;;-6.20;91.00
75428;BME280;64008;55.612;37.698;2022-11-25T02:48:44;100272.66;;;-6.18;90.71
75428;BME280;64008;55.612;37.698;2022-11-25T02:51:13;100280.13;;;-6.13;91.15
75428;BME280;64008;55.612;37.698;2022-11-25T02:53:39;100283.34;;;-6.16;90.00
75428;BME280;64008;55.612;37.698;2022-11-25T02:56:06;100289.31;;;-6.19;89.80
75428;BME280;64008;55.612;37.698;2022-11-25T02:58:32;100293.72;;;-6.18;90.26
75428;BME280;64008;55.612;37.698;2022-11-25T03:00:57;100295.59;;;-6.19;89.81
75428;BME280;64008;55.612;37.698;2022-11-25T03:03:23;100290.13;;;-6.19;89.67
75428;BME280;64008;55.612;37.698;2022-11-25T03:05:48;100299.28;;;-6.13;90.28
75428;BME280;64008;55.612;37.698;2022-11-25T03:08:14;100295.13;;;-6.15;89.50
75428;BME280;64008;55.612;37.698;2022-11-25T03:10:40;100297.03;;;-6.16;89.45
75428;BME280;64008;55.612;37.698;2022-11-25T03:13:07;100302.84;;;-6.12;90.12
75428;BME280;64008;55.612;37.698;2022-11-25T03:15:34;100311.88;;;-6.12;89.64
75428;BME280;64008;55.612;37.698;2022-11-25T03:18:00;100310.47;;;-6.14;89.35
75428;BME280;64008;55.612;37.698;2022-11-25T03:20:25;100317.75;;;-6.20;88.98
75428;BME280;64008;55.612;37.698;2022-11-25T03:22:51;100314.75;;;-6.30;89.57
75428;BME280;64008;55.612;37.698;2022-11-25T03:25:17;100324.53;;;-6.34;88.83
75428;BME280;64008;55.612;37.698;2022-11-25T03:27:43;100331.91;;;-6.35;88.93
75428;BME280;64008;55.612;37.698;2022-11-25T03:30:13;100332.28;;;-6.31;89.58
75428;BME280;64008;55.612;37.698;2022-11-25T03:32:39;100335.13;;;-6.26;90.17
75428;BME280;64008;55.612;37.698;2022-11-25T03:35:05;100326.53;;;-6.30;89.50
75428;BME280;64008;55.612;37.698;2022-11-25T03:37:31;100334.75;;;-6.30;89.37
75428;BME280;64008;55.612;37.698;2022-11-25T03:39:56;100338.91;;;-6.27;89.46
75428;BME280;64008;55.612;37.698;2022-11-25T03:42:22;100332.25;;;-6.20;90.21
75428;BME280;64008;55.612;37.698;2022-11-25T03:44:47;100345.69;;;-6.18;89.70
75428;BME280;64008;55.612;37.698;2022-11-25T03:47:13;100345.34;;;-6.22;89.87
75428;BME280;64008;55.612;37.698;2022-11-25T03:49:38;100347.84;;;-6.20;89.68
75428;BME280;64008;55.612;37.698;2022-11-25T03:52:04;100351.91;;;-6.23;88.97
75428;BME280;64008;55.612;37.698;2022-11-25T03:54:29;100354.88;;;-6.24;90.02
75428;BME280;64008;55.612;37.698;2022-11-25T03:56:55;100360.81;;;-6.27;89.75
75428;BME280;64008;55.612;37.698;2022-11-25T03:59:20;100358.69;;;-6.25;89.78
75428;BME280;64008;55.612;37.698;2022-11-25T04:01:45;100356.53;;;-6.23;90.92
75428;BME280;64008;55.612;37.698;2022-11-25T04:04:11;100360.44;;;-6.19;90.87
75428;BME280;64008;55.612;37.698;2022-11-25T04:06:36;100357.38;;;-6.23;90.26
75428;BME280;64008;55.612;37.698;2022-11-25T04:09:05;100354.28;;;-6.26;89.48
75428;BME280;64008;55.612;37.698;2022-11-25T04:11:30;100356.78;;;-6.25;90.19
75428;BME280;64008;55.612;37.698;2022-11-25T04:14:16;100360.00;;;-6.16;90.77
75428;BME280;64008;55.612;37.698;2022-11-25T04:16:43;100363.66;;;-6.22;90.35
75428;BME280;64008;55.612;37.698;2022-11-25T04:19:08;100361.78;;;-6.33;90.19
75428;BME280;64008;55.612;37.698;2022-11-25T04:21:34;100366.53;;;-6.40;90.11
75428;BME280;64008;55.612;37.698;2022-11-25T04:23:59;100370.44;;;-6.36;91.29
75428;BME280;64008;55.612;37.698;2022-11-25T04:26:25;100369.63;;;-6.37;90.58
75428;BME280;64008;55.612;37.698;2022-11-25T04:28:50;100364.63;;;-6.40;90.56
75428;BME280;64008;55.612;37.698;2022-11-25T04:31:16;100361.63;;;-6.38;90.94
75428;BME280;64008;55.612;37.698;2022-11-25T04:33:41;100368.31;;;-6.34;91.11
75428;BME280;64008;55.612;37.698;2022-11-25T04:36:07;100377.47;;;-6.29;91.41
75428;BME280;64008;55.612;37.698;2022-11-25T04:38:32;100368.69;;;-6.31;91.11
75428;BME280;64008;55.612;37.698;2022-11-25T04:40:58;100364.84;;;-6.30;90.96
75428;BME280;64008;55.612;37.698;2022-11-25T04:43:23;100365.69;;;-6.29;91.41
75428;BME280;64008;55.612;37.698;2022-11-25T04:45:49;100371.16;;;-6.29;91.10
75428;BME280;64008;55.612;37.698;2022-11-25T04:48:15;100368.41;;;-6.29;91.45
75428;BME280;64008;55.612;37.698;2022-11-25T04:50:41;100374.72;;;-6.29;91.46
75428;BME280;64008;55.612;37.698;2022-11-25T04:53:06;100371.16;;;-6.29;90.78
75428;BME280;64008;55.612;37.698;2022-11-25T04:55:32;100376.63;;;-6.29;91.19
75428;BME280;64008;55.612;37.698;2022-11-25T04:57:57;100373.91;;;-6.29;90.80
75428;BME280;64008;55.612;37.698;2022-11-25T05:00:22;100367.84;;;-6.31;91.30
75428;BME280;64008;55.612;37.698;2022-11-25T05:02:48;100371.16;;;-6.29;91.59
75428;BME280;64008;55.612;37.698;2022-11-25T05:05:13;100378.19;;;-6.22;90.72
75428;BME280;64008;55.612;37.698;2022-11-25T05:07:39;100377.59;;;-6.24;90.45
75428;BME280;64008;55.612;37.698;2022-11-25T05:10:05;100382.25;;;-6.24;91.46
75428;BME280;64008;55.612;37.698;2022-11-25T05:12:31;100368.44;;;-6.18;91.17
75428;BME280;64008;55.612;37.698;2022-11-25T05:14:57;100368.66;;;-6.19;91.19
75428;BME280;64008;55.612;37.698;2022-11-25T05:17:25;100371.28;;;-6.12;90.99
75428;BME280;64008;55.612;37.698;2022-11-25T05:19:51;100370.06;;;-6.05;91.42
75428;BME280;64008;55.612;37.698;2022-11-25T05:22:20;100365.56;;;-5.99;91.12
75428;BME280;64008;55.612;37.698;2022-11-25T05:24:46;100378.06;;;-5.92;91.17
75428;BME280;64008;55.612;37.698;2022-11-25T05:27:11;100382.69;;;-5.92;91.13
75428;BME280;64008;55.612;37.698;2022-11-25T05:29:37;100377.34;;;-5.99;90.77
75428;BME280;64008;55.612;37.698;2022-11-25T05:32:04;100381.50;;;-5.96;90.51
75428;BME280;64008;55.612;37.698;2022-11-25T05:34:29;100385.66;;;-5.94;90.96
75428;BME280;64008;55.612;37.698;2022-11-25T05:36:55;100385.75;;;-5.89;90.87
75428;BME280;64008;55.612;37.698;2022-11-25T05:39:21;100390.31;;;-5.94;90.54
75428;BME280;64008;55.612;37.698;2022-11-25T05:41:47;100382.94;;;-5.94;90.58
75428;BME280;64008;55.612;37.698;2022-11-25T05:44:12;100386.63;;;-6.00;90.15
75428;BME280;64008;55.612;37.698;2022-11-25T05:46:38;100389.47;;;-5.95;91.07
75428;BME280;64008;55.612;37.698;2022-11-25T05:49:03;100398.50;;;-5.94;90.44
75428;BME280;64008;55.612;37.698;2022-11-25T05:51:29;100396.00;;;-5.96;90.67
75428;BME280;64008;55.612;37.698;2022-11-25T05:53:55;100396.94;;;-5.90;91.05
75428;BME280;64008;55.612;37.698;2022-11-25T05:56:20;100404.34;;;-5.91;90.63
75428;BME280;64008;55.612;37.698;2022-11-25T05:58:46;100407.09;;;-5.91;91.57
75428;BME280;64008;55.612;37.698;2022-11-25T06:01:13;100399.69;;;-5.90;91.14
75428;BME280;64008;55.612;37.698;2022-11-25T06:03:39;100403.84;;;-5.88;90.82
75428;BME280;64008;55.612;37.698;2022-11-25T06:06:05;100398.94;;;-5.86;90.67
75428;BME280;64008;55.612;37.698;2022-11-25T06:08:32;100405.59;;;-5.82;91.68
75428;BME280;64008;55.612;37.698;2022-11-25T06:10:57;100411.06;;;-5.82;90.38
75428;BME280;64008;55.612;37.698;2022-11-25T06:13:23;100421.78;;;-5.80;90.61
75428;BME280;64008;55.612;37.698;2022-11-25T06:15:49;100418.72;;;-5.84;91.02
75428;BME280;64008;55.612;37.698;2022-11-25T06:18:16;100424.19;;;-5.84;90.30
75428;BME280;64008;55.612;37.698;2022-11-25T06:20:42;100427.50;;;-5.82;91.27
75428;BME280;64008;55.612;37.698;2022-11-25T06:23:08;100432.50;;;-5.79;90.32
75428;BME280;64008;55.612;37.698;2022-11-25T06:25:34;100432.16;;;-5.82;90.38
75428;BME280;64008;55.612;37.698;2022-11-25T06:28:01;100435.16;;;-5.84;90.49
75428;BME280;64008;55.612;37.698;2022-11-25T06:30:27;100438.72;;;-5.83;90.32
75428;BME280;64008;55.612;37.698;2022-11-25T06:32:53;100441.94;;;-5.86;90.53
75428;BME280;64008;55.612;37.698;2022-11-25T06:35:19;100442.75;;;-5.86;90.59
75428;BME280;64008;55.612;37.698;2022-11-25T06:37:45;100441.56;;;-5.78;91.81
75428;BME280;64008;55.612;37.698;2022-11-25T06:40:10;100438.00;;;-5.79;90.84
75428;BME280;64008;55.612;37.698;2022-11-25T06:42:37;100439.75;;;-5.72;91.44
75428;BME280;64008;55.612;37.698;2022-11-25T06:45:03;100444.78;;;-5.69;91.04
75428;BME280;64008;55.612;37.698;2022-11-25T06:47:29;100442.38;;;-5.66;91.12
75428;BME280;64008;55.612;37.698;2022-11-25T06:49:55;100436.88;;;-5.66;90.95
75428;BME280;64008;55.612;37.698;2022-11-25T06:52:20;100438.22;;;-5.68;90.36
75428;BME280;64008;55.612;37.698;2022-11-25T06:54:46;100448.34;;;-5.69;90.46
75428;BME280;64008;55.612;37.698;2022-11-25T06:57:11;100446.06;;;-5.72;89.97
75428;BME280;64008;55.612;37.698;2022-11-25T06:59:40;100452.63;;;-5.73;90.33
75428;BME280;64008;55.612;37.698;2022-11-25T07:02:10;100457.75;;;-5.76;90.92
75428;BME280;64008;55.612;37.698;2022-11-25T07:04:37;100451.09;;;-5.81;90.43
75428;BME280;64008;55.612;37.698;2022-11-25T07:07:03;100453.59;;;-5.79;90.94
75428;BME280;64008;55.612;37.698;2022-11-25T07:09:29;100457.03;;;-5.72;91.34
75428;BME280;64008;55.612;37.698;2022-11-25T07:11:54;100462.38;;;-5.65;91.02
75428;BME280;64008;55.612;37.698;2022-11-25T07:14:20;100470.97;;;-5.62;90.61
75428;BME280;64008;55.612;37.698;2022-11-25T07:16:46;100465.94;;;-5.53;90.68
75428;BME280;64008;55.612;37.698;2022-11-25T07:19:14;100465.81;;;-5.47;90.26
75428;BME280;64008;55.612;37.698;2022-11-25T07:21:41;100464.59;;;-5.39;90.69
75428;BME280;64008;55.612;37.698;2022-11-25T07:24:09;100475.66;;;-5.34;90.07
75428;BME280;64008;55.612;37.698;2022-11-25T07:26:36;100478.91;;;-5.37;89.22
75428;BME280;64008;55.612;37.698;2022-11-25T07:29:06;100477.22;;;-5.38;89.65
75428;BME280;64008;55.612;37.698;2022-11-25T07:31:34;100476.16;;;-5.37;89.09
75428;BME280;64008;55.612;37.698;2022-11-25T07:34:15;100470.19;;;-5.34;89.48
75428;BME280;64008;55.612;37.698;2022-11-25T07:36:44;100476.03;;;-5.42;88.97
75428;BME280;64008;55.612;37.698;2022-11-25T07:39:12;100481.03;;;-5.39;89.81
75428;BME280;64008;55.612;37.698;2022-11-25T07:41:38;100477.00;;;-5.36;89.04
75428;BME280;64008;55.612;37.698;2022-11-25T07:44:05;100472.44;;;-5.31;89.00
75428;BME280;64008;55.612;37.698;2022-11-25T07:46:37;100471.38;;;-5.30;88.80
75428;BME280;64008;55.612;37.698;2022-11-25T07:49:06;100474.13;;;-5.30;89.12
75428;BME280;64008;55.612;37.698;2022-11-25T07:51:40;100479.38;;;-5.28;89.16
75428;BME280;64008;55.612;37.698;2022-11-25T07:54:08;100480.75;;;-5.26;89.67
75428;BME280;64008;55.612;37.698;2022-11-25T07:56:36;100478.41;;;-5.34;89.35
75428;BME280;64008;55.612;37.698;2022-11-25T07:59:02;100482.56;;;-5.31;89.57
75428;BME280;64008;55.612;37.698;2022-11-25T08:01:28;100481.25;;;-5.29;89.28
75428;BME280;64008;55.612;37.698;2022-11-25T08:03:54;100486.25;;;-5.26;88.82
75428;BME280;64008;55.612;37.698;2022-11-25T08:06:27;100488.16;;;-5.26;88.06
75428;BME280;64008;55.612;37.698;2022-11-25T08:08:54;100485.78;;;-5.23;88.30
75428;BME280;64008;55.612;37.698;2022-11-25T08:11:22;100486.00;;;-5.13;88.37
75428;BME280;64008;55.612;37.698;2022-11-25T08:13:48;100498.88;;;-5.13;87.73
75428;BME280;64008;55.612;37.698;2022-11-25T08:16:16;100502.91;;;-5.16;88.13
75428;BME280;64008;55.612;37.698;2022-11-25T08:18:42;100499.00;;;-5.20;87.10
75428;BME280;64008;55.612;37.698;2022-11-25T08:21:10;100500.91;;;-5.20;87.32
75428;BME280;64008;55.612;37.698;2022-11-25T08:23:37;100512.81;;;-5.15;88.80
75428;BME280;64008;55.612;37.698;2022-11-25T08:26:04;100499.94;;;-5.26;87.49
75428;BME280;64008;55.612;37.698;2022-11-25T08:28:31;100503.06;;;-5.22;87.92
75428;BME280;64008;55.612;37.698;2022-11-25T08:31:11;100502.91;;;-5.16;88.25
75428;BME280;64008;55.612;37.698;2022-11-25T08:33:37;100496.22;;;-5.08;87.91
75428;BME280;64008;55.612;37.698;2022-11-25T08:36:04;100499.78;;;-5.08;88.23
75428;BME280;64008;55.612;37.698;2022-11-25T08:38:31;100495.13;;;-4.95;88.45
75428;BME280;64008;55.612;37.698;2022-11-25T08:40:57;100496.97;;;-4.84;87.86
75428;BME280;64008;55.612;37.698;2022-11-25T08:43:23;100501.22;;;-4.77;88.90
75428;BME280;64008;55.612;37.698;2022-11-25T08:45:49;100501.00;;;-4.75;88.39
75428;BME280;64008;55.612;37.698;2022-11-25T08:48:16;100506.31;;;-4.69;88.00
75428;BME280;64008;55.612;37.698;2022-11-25T08:50:46;100503.66;;;-4.80;86.18
75428;BME280;64008;55.612;37.698;2022-11-25T08:53:12;100486.00;;;-4.84;87.09
75428;BME280;64008;55.612;37.698;2022-11-25T08:55:37;100505.41;;;-4.74;87.33
75428;BME280;64008;55.612;37.698;2022-11-25T08:58:03;100504.22;;;-4.78;86.49
75428;BME280;64008;55.612;37.698;2022-11-25T09:00:29;100501.75;;;-4.80;86.79
75428;BME280;64008;55.612;37.698;2022-11-25T09:02:54;100506.88;;;-4.83;86.78
75428;BME280;64008;55.612;37.698;2022-11-25T09:05:20;100504.38;;;-4.85;87.19
75428;BME280;64008;55.612;37.698;2022-11-25T09:07:46;100517.16;;;-4.90;87.05
75428;BME280;64008;55.612;37.698;2022-11-25T09:10:15;100509.84;;;-4.85;87.21
75428;BME280;64008;55.612;37.698;2022-11-25T09:12:42;100512.06;;;-4.70;87.52
75428;BME280;64008;55.612;37.698;2022-11-25T09:15:08;100511.38;;;-4.77;87.54
75428;BME280;64008;55.612;37.698;2022-11-25T09:17:33;100515.06;;;-4.72;87.53
75428;BME280;64008;55.612;37.698;2022-11-25T09:20:03;100504.31;;;-4.73;87.44
75428;BME280;64008;55.612;37.698;2022-11-25T09:22:30;100515.97;;;-4.66;87.70
75428;BME280;64008;55.612;37.698;2022-11-25T09:24:56;100509.31;;;-4.70;87.05
75428;BME280;64008;55.612;37.698;2022-11-25T09:27:21;100502.66;;;-4.74;87.56
75428;BME280;64008;55.612;37.698;2022-11-25T09:29:47;100502.56;;;-4.79;87.36
75428;BME280;64008;55.612;37.698;2022-11-25T09:32:12;100500.53;;;-4.84;86.36
75428;BME280;64008;55.612;37.698;2022-11-25T09:34:38;100501.53;;;-4.90;87.20
75428;BME280;64008;55.612;37.698;2022-11-25T09:37:03;100503.47;;;-5.02;86.54
75428;BME280;64008;55.612;37.698;2022-11-25T09:39:30;100495.38;;;-5.09;86.87
75428;BME280;64008;55.612;37.698;2022-11-25T09:42:21;100498.13;;;-5.09;87.56
75428;BME280;64008;55.612;37.698;2022-11-25T09:45:17;100498.13;;;-5.09;86.99
75428;BME280;64008;55.612;37.698;2022-11-25T09:53:47;100510.16;;;-5.10;87.13
75428;BME280;64008;55.612;37.698;2022-11-25T09:58:51;100509.22;;;-5.15;86.24
75428;BME280;64008;55.612;37.698;2022-11-25T10:01:21;100511.38;;;-5.17;86.91
75428;BME280;64008;55.612;37.698;2022-11-25T10:03:53;100506.34;;;-5.09;86.96
75428;BME280;64008;55.612;37.698;2022-11-25T10:06:27;100497.88;;;-4.95;87.63
75428;BME280;64008;55.612;37.698;2022-11-25T10:09:00;100501.84;;;-4.86;87.91
75428;BME280;64008;55.612;37.698;2022-11-25T10:11:34;100506.19;;;-4.90;86.93
75428;BME280;64008;55.612;37.698;2022-11-25T10:14:06;100511.19;;;-4.87;87.39
75428;BME280;64008;55.612;37.698;2022-11-25T10:16:38;100513.03;;;-5.05;86.53
75428;BME280;64008;55.612;37.698;2022-11-25T10:19:37;100508.63;;;-5.06;86.62
75428;BME280;64008;55.612;37.698;2022-11-25T10:22:19;100513.47;;;-4.96;86.74
75428;BME280;64008;55.612;37.698;2022-11-25T10:24:46;100522.09;;;-5.04;86.08
75428;BME280;64008;55.612;37.698;2022-11-25T10:27:41;100532.56;;;-5.01;86.79
75428;BME280;64008;55.612;37.698;2022-11-25T10:30:21;100541.38;;;-4.99;87.02
75428;BME280;64008;55.612;37.698;2022-11-25T10:32:58;100539.38;;;-5.04;86.21
75428;BME280;64008;55.612;37.698;2022-11-25T10:35:34;100534.13;;;-5.05;86.28
75428;BME280;64008;55.612;37.698;2022-11-25T10:38:05;100541.97;;;-4.97;87.00
75428;BME280;64008;55.612;37.698;2022-11-25T10:40:32;100544.34;;;-4.89;86.48
75428;BME280;64008;55.612;37.698;2022-11-25T10:43:00;100549.00;;;-4.89;86.19
75428;BME280;64008;55.612;37.698;2022-11-25T10:45:34;100551.59;;;-4.94;86.04
75428;BME280;64008;55.612;37.698;2022-11-25T10:51:41;100560.34;;;-4.97;86.75
75428;BME280;64008;55.612;37.698;2022-11-25T10:56:47;100553.19;;;-4.98;86.55
75428;BME280;64008;55.612;37.698;2022-11-25T10:59:20;100562.25;;;-4.98;86.50
75428;BME280;64008;55.612;37.698;2022-11-25T11:01:46;100559.63;;;-5.05;86.54
75428;BME280;64008;55.612;37.698;2022-11-25T11:04:12;100558.69;;;-5.10;86.58
75428;BME280;64008;55.612;37.698;2022-11-25T11:06:40;100570.28;;;-5.20;86.24
75428;BME280;64008;55.612;37.698;2022-11-25T11:09:34;100570.38;;;-5.26;87.08
75428;BME280;64008;55.612;37.698;2022-11-25T11:12:27;100572.53;;;-5.17;87.68
75428;BME280;64008;55.612;37.698;2022-11-25T11:15:14;100562.75;;;-5.13;87.27
75428;BME280;64008;55.612;37.698;2022-11-25T11:17:39;100561.78;;;-5.18;86.50
75428;BME280;64008;55.612;37.698;2022-11-25T11:22:32;100562.63;;;-5.18;87.05
75428;BME280;64008;55.612;37.698;2022-11-25T11:27:47;100565.03;;;-5.21;86.63
75428;BME280;64008;55.612;37.698;2022-11-25T11:30:18;100558.25;;;-5.19;87.23
75428;BME280;64008;55.612;37.698;2022-11-25T11:32:58;100557.88;;;-5.22;86.79
75428;BME280;64008;55.612;37.698;2022-11-25T11:35:50;100564.19;;;-5.22;86.91
75428;BME280;64008;55.612;37.698;2022-11-25T11:38:31;100563.81;;;-5.25;87.61
75428;BME280;64008;55.612;37.698;2022-11-25T11:46:30;100580.88;;;-5.12;87.52
75428;BME280;64008;55.612;37.698;2022-11-25T11:49:09;100570.84;;;-5.18;87.31
75428;BME280;64008;55.612;37.698;2022-11-25T11:52:02;100584.09;;;-5.26;87.33
75428;BME280;64008;55.612;37.698;2022-11-25T11:54:45;100594.72;;;-5.30;87.60
75428;BME280;64008;55.612;37.698;2022-11-25T11:57:38;100595.53;;;-5.29;87.79
75428;BME280;64008;55.612;37.698;2022-11-25T12:00:23;100597.69;;;-5.31;88.03
75428;BME280;64008;55.612;37.698;2022-11-25T12:03:19;100603.16;;;-5.31;87.55
75428;BME280;64008;55.612;37.698;2022-11-25T12:05:46;100613.91;;;-5.30;88.00
75428;BME280;64008;55.612;37.698;2022-11-25T12:10:57;100599.22;;;-5.24;87.69
75428;BME280;64008;55.612;37.698;2022-11-25T12:13:36;100598.16;;;-5.23;87.89
75428;BME280;64008;55.612;37.698;2022-11-25T12:18:49;100597.31;;;-5.23;87.24
75428;BME280;64008;55.612;37.698;2022-11-25T12:21:37;100601.38;;;-5.26;87.58
75428;BME280;64008;55.612;37.698;2022-11-25T12:24:40;100598.53;;;-5.31;87.42
75428;BME280;64008;55.612;37.698;2022-11-25T12:27:21;100599.25;;;-5.35;87.93
75428;BME280;64008;55.612;37.698;2022-11-25T12:29:52;100604.47;;;-5.34;87.62
75428;BME280;64008;55.612;37.698;2022-11-25T12:35:38;100611.28;;;-5.36;87.49
75428;BME280;64008;55.612;37.698;2022-11-25T12:41:02;100607.09;;;-5.39;87.97
75428;BME280;64008;55.612;37.698;2022-11-25T12:43:53;100618.91;;;-5.38;87.45
75428;BME280;64008;55.612;37.698;2022-11-25T12:48:58;100610.78;;;-5.33;87.96
75428;BME280;64008;55.612;37.698;2022-11-25T12:55:03;100620.44;;;-5.31;87.55
75428;BME280;64008;55.612;37.698;2022-11-25T13:02:59;100633.06;;;-5.30;88.04
75428;BME280;64008;55.612;37.698;2022-11-25T13:16:50;100650.13;;;-5.28;88.32
75428;BME280;64008;55.612;37.698;2022-11-25T13:19:19;100641.91;;;-5.28;88.08
75428;BME280;64008;55.612;37.698;2022-11-25T13:21:58;100655.94;;;-5.24;87.72
75428;BME280;64008;55.612;37.698;2022-11-25T13:24:39;100647.72;;;-5.24;87.35
75428;BME280;64008;55.612;37.698;2022-11-25T13:29:53;100648.09;;;-5.21;88.03
75428;BME280;64008;55.612;37.698;2022-11-25T13:32:32;100651.44;;;-5.19;88.21
75428;BME280;64008;55.612;37.698;2022-11-25T13:37:46;100652.97;;;-5.23;87.08
75428;BME280;64008;55.612;37.698;2022-11-25T13:42:51;100656.19;;;-5.26;86.62
75428;BME280;64008;55.612;37.698;2022-11-25T13:47:54;100654.88;;;-5.23;87.42
75428;BME280;64008;55.612;37.698;2022-11-25T13:50:28;100653.09;;;-5.18;87.42
75428;BME280;64008;55.612;37.698;2022-11-25T13:53:03;100658.22;;;-5.21;87.38
75428;BME280;64008;55.612;37.698;2022-11-25T13:55:37;100663.22;;;-5.18;87.08
75428;BME280;64008;55.612;37.698;2022-11-25T14:19:30;100665.50;;;-5.27;87.39
75428;BME280;64008;55.612;37.698;2022-11-25T14:27:57;100667.66;;;-5.29;87.50
75428;BME280;64008;55.612;37.698;2022-11-25T14:30:28;100665.00;;;-5.24;88.35
75428;BME280;64008;55.612;37.698;2022-11-25T14:33:01;100671.94;;;-5.21;87.75